Time;durP1;ratioP1;P1;durP2;ratioP2;P2;SDS_P1;SDS_P2;PMS_P1;PMS_P2;Temp;Humidity;BMP_temperature;BMP_pressure;BME280_temperature;BME280_humidity;BME280_pressure;Samples;Min_cycle;Max_cycle;Signal;HPM_P1;HPM_P2
2021/08/02 00:09:35;;;;;;;3.60;2.50;;;16.70;99.90;;;;;;6741031;88;20690;-78
2021/08/02 00:19:36;;;;;;;4.53;2.87;;;16.70;99.90;;;;;;6733716;88;20268;-78
2021/08/02 00:29:39;;;;;;;3.87;2.95;;;16.40;99.90;;;;;;6734321;88;20197;-78
2021/08/02 00:39:51;;;;;;;3.95;2.97;;;16.40;99.90;;;;;;6727216;88;20216;-79
2021/08/02 00:50:02;;;;;;;5.70;3.10;;;16.70;99.90;;;;;;6741699;88;20206;-78
2021/08/02 01:00:10;;;;;;;4.00;3.00;;;16.60;99.90;;;;;;6736527;88;20187;-77
2021/08/02 01:10:14;;;;;;;5.60;3.35;;;16.60;99.90;;;;;;6733233;88;20669;-77
2021/08/02 01:20:15;;;;;;;4.68;3.10;;;16.60;99.90;;;;;;6733024;88;20306;-76
2021/08/02 01:30:23;;;;;;;4.90;3.55;;;16.60;99.90;;;;;;6733789;88;20230;-78
2021/08/02 01:40:24;;;;;;;6.12;3.97;;;16.70;99.90;;;;;;6732623;88;20211;-75
2021/08/02 01:50:39;;;;;;;8.30;4.68;;;16.60;99.90;;;;;;6732107;88;20255;-76
2021/08/02 02:00:45;;;;;;;7.00;4.70;;;16.50;99.90;;;;;;6732429;88;20298;-78
2021/08/02 02:10:54;;;;;;;7.30;5.20;;;16.50;99.90;;;;;;6732495;88;20624;-78
2021/08/02 02:20:58;;;;;;;7.50;5.65;;;16.50;99.90;;;;;;6732228;88;20660;-76
2021/08/02 02:31:00;;;;;;;10.65;6.05;;;16.40;99.90;;;;;;6732865;88;20206;-77
2021/08/02 02:41:02;;;;;;;9.70;6.57;;;16.40;99.90;;;;;;6755491;88;20202;-76
2021/08/02 02:51:02;;;;;;;10.23;6.72;;;16.20;99.90;;;;;;6734328;88;20217;-77
2021/08/02 03:01:05;;;;;;;10.52;6.40;;;16.20;99.90;;;;;;6763606;88;20208;-77
2021/08/02 03:11:06;;;;;;;10.05;7.35;;;16.20;99.90;;;;;;6735123;88;20314;-76
2021/08/02 03:21:07;;;;;;;10.73;7.47;;;16.20;99.90;;;;;;6735162;88;20189;-76
2021/08/02 03:31:11;;;;;;;11.07;8.02;;;16.20;99.90;;;;;;6734315;88;20189;-79
2021/08/02 03:41:13;;;;;;;11.48;8.10;;;16.20;99.90;;;;;;6736145;88;20196;-76
2021/08/02 03:51:13;;;;;;;11.98;8.35;;;16.00;99.90;;;;;;6734617;88;20329;-76
2021/08/02 04:01:14;;;;;;;14.23;9.03;;;16.20;99.90;;;;;;6731099;88;20215;-81
2021/08/02 04:11:14;;;;;;;11.48;8.52;;;16.20;99.90;;;;;;6733845;88;20254;-77
2021/08/02 04:21:19;;;;;;;15.15;9.98;;;16.10;99.90;;;;;;6734047;88;20200;-77
2021/08/02 04:31:19;;;;;;;17.90;11.63;;;15.90;99.90;;;;;;6732177;88;20711;-76
2021/08/02 04:41:20;;;;;;;23.48;13.48;;;15.50;99.90;;;;;;6731924;88;20225;-75
2021/08/02 04:51:20;;;;;;;26.27;14.60;;;15.30;99.90;;;;;;6731406;88;20188;-74
2021/08/02 05:01:21;;;;;;;25.15;13.30;;;15.30;99.90;;;;;;6731042;88;20208;-77
2021/08/02 05:11:22;;;;;;;17.75;11.05;;;15.30;99.90;;;;;;6730883;88;20201;-77
2021/08/02 05:21:22;;;;;;;17.42;10.45;;;15.40;99.90;;;;;;6727026;88;20322;-75
2021/08/02 05:31:23;;;;;;;11.12;7.72;;;15.50;99.90;;;;;;6730856;88;20623;-76
2021/08/02 05:41:23;;;;;;;14.77;9.85;;;15.40;99.90;;;;;;6731014;88;20184;-75
2021/08/02 05:51:24;;;;;;;14.10;9.45;;;15.40;99.90;;;;;;6730796;88;20598;-75
2021/08/02 06:01:24;;;;;;;14.38;9.60;;;15.70;99.90;;;;;;6730194;88;20209;-75
2021/08/02 06:11:25;;;;;;;14.32;9.27;;;15.80;99.90;;;;;;6730294;88;20297;-74
2021/08/02 06:21:25;;;;;;;12.18;8.20;;;16.00;99.90;;;;;;6730108;88;20227;-74
2021/08/02 06:31:26;;;;;;;11.32;7.40;;;16.00;99.90;;;;;;6730305;88;20222;-74
2021/08/02 06:41:26;;;;;;;12.03;8.30;;;16.20;99.90;;;;;;6729608;88;20250;-74
2021/08/02 06:51:27;;;;;;;11.12;7.87;;;16.50;99.90;;;;;;6729495;88;20232;-77
2021/08/02 07:01:27;;;;;;;15.25;8.00;;;16.50;99.90;;;;;;6729657;88;20205;-76
2021/08/02 07:11:28;;;;;;;11.77;8.23;;;16.50;99.90;;;;;;6730101;88;20255;-75
2021/08/02 07:21:29;;;;;;;11.52;7.43;;;16.40;99.90;;;;;;6729512;88;20212;-75
2021/08/02 07:31:29;;;;;;;10.82;7.72;;;16.40;99.90;;;;;;6729762;88;20609;-75
2021/08/02 07:41:31;;;;;;;12.93;8.82;;;16.50;99.90;;;;;;6732511;88;20250;-77
2021/08/02 07:51:34;;;;;;;13.45;9.38;;;16.30;99.90;;;;;;6737891;88;20202;-77
2021/08/02 08:01:35;;;;;;;14.20;9.63;;;16.30;99.90;;;;;;6738341;88;20227;-77
2021/08/02 08:11:35;;;;;;;14.73;9.65;;;16.30;99.90;;;;;;6736653;88;20337;-76
2021/08/02 08:21:37;;;;;;;16.42;9.77;;;16.50;99.90;;;;;;6754108;88;20257;-77
2021/08/02 08:41:42;;;;;;;15.57;10.20;;;16.40;99.90;;;;;;6732546;88;20202;-79
2021/08/02 08:51:43;;;;;;;12.63;8.50;;;16.80;99.90;;;;;;6735452;88;20204;-79
2021/08/02 09:01:43;;;;;;;12.57;9.07;;;17.10;99.90;;;;;;6719235;88;20211;-78
2021/08/02 09:11:44;;;;;;;9.75;6.60;;;17.20;99.90;;;;;;6721946;88;20198;-78
2021/08/02 09:21:47;;;;;;;10.65;7.37;;;17.40;99.90;;;;;;6727366;88;20671;-78
2021/08/02 09:31:48;;;;;;;13.48;8.45;;;17.30;99.90;;;;;;6722308;88;20309;-79
2021/08/02 09:42:00;;;;;;;9.63;6.53;;;17.30;99.90;;;;;;6725882;88;20370;-77
2021/08/02 09:52:07;;;;;;;5.65;4.57;;;18.20;99.90;;;;;;6727097;88;20231;-79
2021/08/02 10:02:08;;;;;;;10.93;6.50;;;19.20;99.90;;;;;;6729266;88;20193;-80
2021/08/02 10:12:08;;;;;;;10.65;7.65;;;19.70;99.90;;;;;;6732313;88;20723;-78
2021/08/02 10:22:10;;;;;;;11.20;6.68;;;19.30;99.90;;;;;;6726865;88;20214;-76
2021/08/02 10:32:30;;;;;;;7.90;5.25;;;20.60;99.90;;;;;;6721162;88;20678;-77
2021/08/02 10:42:31;;;;;;;7.12;4.20;;;21.60;99.90;;;;;;6721483;88;20220;-77
2021/08/02 10:52:31;;;;;;;5.72;3.87;;;22.10;99.90;;;;;;6719056;88;20235;-77
2021/08/02 11:02:32;;;;;;;4.72;3.90;;;22.30;99.90;;;;;;6724716;88;20230;-79
2021/08/02 11:12:45;;;;;;;5.10;2.92;;;21.80;99.90;;;;;;6720266;88;20324;-78
2021/08/02 11:22:53;;;;;;;7.93;3.05;;;23.00;99.90;;;;;;6717593;88;20247;-80
2021/08/02 11:32:56;;;;;;;7.35;3.33;;;22.50;99.90;;;;;;6723011;88;20228;-78
2021/08/02 11:43:01;;;;;;;4.22;3.03;;;22.60;99.90;;;;;;6723042;88;20205;-78
2021/08/02 11:53:06;;;;;;;11.57;4.70;;;22.60;99.90;;;;;;6723126;88;20208;-78
2021/08/02 12:03:11;;;;;;;7.07;4.97;;;21.80;99.90;;;;;;6720096;88;20493;-79
2021/08/02 12:13:13;;;;;;;8.65;4.85;;;21.70;99.90;;;;;;6730247;88;20226;-80
2021/08/02 12:23:25;;;;;;;7.78;3.80;;;21.40;99.90;;;;;;6737067;88;20207;-79
2021/08/02 12:33:26;;;;;;;7.45;3.15;;;21.30;99.90;;;;;;6745279;88;20219;-78
2021/08/02 12:43:26;;;;;;;8.05;3.28;;;22.00;99.90;;;;;;6736553;88;20676;-79
2021/08/02 12:53:27;;;;;;;8.02;2.92;;;22.50;99.90;;;;;;6738808;88;20249;-79
2021/08/02 13:03:27;;;;;;;6.18;3.45;;;23.80;99.90;;;;;;6737121;88;20206;-79
2021/08/02 13:13:28;;;;;;;4.82;3.30;;;22.80;99.90;;;;;;6727333;88;20194;-79
2021/08/02 13:23:33;;;;;;;3.47;2.33;;;22.40;99.90;;;;;;6729702;88;20192;-79
2021/08/02 13:33:34;;;;;;;3.35;2.08;;;23.30;99.90;;;;;;6727540;88;20193;-80
2021/08/02 13:43:34;;;;;;;3.30;2.17;;;23.30;99.90;;;;;;6726121;88;20207;-79
2021/08/02 13:53:35;;;;;;;3.42;2.60;;;22.80;99.90;;;;;;6723478;88;20208;-79
2021/08/02 14:03:35;;;;;;;4.78;2.60;;;23.30;99.90;;;;;;6727492;88;20223;-81
2021/08/02 14:13:36;;;;;;;5.93;2.95;;;23.30;99.90;;;;;;6728663;88;20233;-79
2021/08/02 14:23:36;;;;;;;5.63;3.13;;;23.60;99.90;;;;;;6727418;88;20375;-81
2021/08/02 14:33:40;;;;;;;4.47;2.50;;;22.50;99.90;;;;;;6726166;77;20178;-78
2021/08/02 14:43:45;;;;;;;;;;;22.30;99.90;;;;;;6716658;88;20199;-78
2021/08/02 14:53:45;;;;;;;6.07;2.90;;;20.90;99.90;;;;;;6701634;88;20061;-78
2021/08/02 15:03:49;;;;;;;7.10;3.75;;;19.10;99.90;;;;;;6699181;88;20299;-76
2021/08/02 15:13:51;;;;;;;6.80;3.90;;;18.20;99.90;;;;;;6698274;88;20210;-76
2021/08/02 15:23:56;;;;;;;8.93;4.45;;;17.80;99.90;;;;;;6698344;88;20316;-76
2021/08/02 15:33:58;;;;;;;5.25;3.28;;;18.60;99.90;;;;;;6702664;88;20790;-77
2021/08/02 15:43:59;;;;;;;5.40;2.75;;;19.60;99.90;;;;;;6714982;88;20193;-75
2021/08/02 15:54:03;;;;;;;4.15;2.62;;;19.80;99.90;;;;;;6715826;88;20215;-76
2021/08/02 16:04:09;;;;;;;3.83;2.67;;;20.60;99.90;;;;;;6714925;88;20236;-77
2021/08/02 16:14:10;;;;;;;4.32;2.35;;;20.80;99.90;;;;;;6714605;88;20211;-76
2021/08/02 16:24:11;;;;;;;8.05;2.17;;;20.50;99.90;;;;;;6715100;88;20602;-76
2021/08/02 16:34:11;;;;;;;6.07;2.10;;;20.60;99.90;;;;;;6714965;88;20250;-77
2021/08/02 16:44:12;;;;;;;5.60;2.17;;;21.30;99.90;;;;;;6710787;88;20322;-76
2021/08/02 16:54:12;;;;;;;5.20;2.37;;;21.20;99.90;;;;;;6714311;88;20234;-76
2021/08/02 17:04:13;;;;;;;5.20;2.30;;;21.00;99.90;;;;;;6714201;88;20311;-76
2021/08/02 17:14:13;;;;;;;5.47;2.30;;;20.60;99.90;;;;;;6714427;88;20255;-75
2021/08/02 17:24:16;;;;;;;5.55;2.42;;;20.50;99.90;;;;;;6714087;88;20193;-74
2021/08/02 17:34:16;;;;;;;6.93;2.35;;;19.90;99.90;;;;;;6713671;88;20236;-77
2021/08/02 17:44:17;;;;;;;8.80;2.40;;;19.40;99.90;;;;;;6713759;88;20864;-75
2021/08/02 17:54:18;;;;;;;9.13;3.30;;;20.30;99.90;;;;;;6713739;88;20197;-75
2021/08/02 18:04:19;;;;;;;5.07;3.10;;;19.80;99.90;;;;;;6714114;88;20299;-75
2021/08/02 18:14:19;;;;;;;5.90;3.28;;;19.50;99.90;;;;;;6713709;88;20181;-76
2021/08/02 18:24:20;;;;;;;7.72;3.90;;;18.90;99.90;;;;;;6714607;88;20201;-75
2021/08/02 18:34:21;;;;;;;5.93;3.85;;;18.40;99.90;;;;;;6713456;88;20629;-75
2021/08/02 18:44:21;;;;;;;7.57;3.42;;;18.10;99.90;;;;;;6712898;88;20181;-75
2021/08/02 18:54:22;;;;;;;4.73;3.10;;;18.20;99.90;;;;;;6713132;88;20731;-75
2021/08/02 19:04:22;;;;;;;6.03;3.17;;;17.70;99.90;;;;;;6712851;88;20188;-77
2021/08/02 19:14:23;;;;;;;6.32;2.90;;;17.60;99.90;;;;;;6712916;88;20238;-77
2021/08/02 19:24:25;;;;;;;4.80;2.70;;;17.40;99.90;;;;;;6712777;88;20668;-75
2021/08/02 19:34:28;;;;;;;5.37;3.00;;;17.20;99.90;;;;;;6713479;88;20675;-74
2021/08/02 19:44:47;;;;;;;4.43;2.80;;;17.00;99.90;;;;;;6714515;88;20238;-75
2021/08/02 19:54:50;;;;;;;5.57;3.05;;;16.70;99.90;;;;;;6715270;88;20227;-75
2021/08/02 20:04:51;;;;;;;8.75;2.97;;;16.30;99.90;;;;;;6731720;88;20324;-77
2021/08/02 20:14:52;;;;;;;5.47;3.00;;;16.10;99.90;;;;;;6717576;88;20193;-75
2021/08/02 20:25:05;;;;;;;5.43;2.92;;;16.20;99.90;;;;;;6733226;88;20189;-77
2021/08/02 20:35:09;;;;;;;5.70;3.35;;;15.90;99.90;;;;;;6716581;88;20276;-78
2021/08/02 20:45:14;;;;;;;6.32;3.05;;;15.70;99.90;;;;;;6708989;88;20202;-77
2021/08/02 20:55:15;;;;;;;7.07;3.70;;;15.60;99.90;;;;;;6705009;88;20664;-77
2021/08/02 21:05:17;;;;;;;5.65;3.40;;;15.50;99.90;;;;;;6703747;88;20557;-77
2021/08/02 21:15:18;;;;;;;7.07;3.92;;;15.10;99.90;;;;;;6704413;88;20759;-77
2021/08/02 21:25:24;;;;;;;10.65;3.80;;;15.10;99.90;;;;;;6704336;88;20230;-75
2021/08/02 21:35:24;;;;;;;6.50;3.95;;;15.00;99.90;;;;;;6704455;88;20244;-76
2021/08/02 21:45:26;;;;;;;6.23;3.90;;;15.00;99.90;;;;;;6699931;88;20325;-77
2021/08/02 21:55:27;;;;;;;9.10;4.12;;;15.10;99.90;;;;;;6702929;88;20185;-78
2021/08/02 22:05:27;;;;;;;7.68;4.32;;;14.80;99.90;;;;;;6698770;88;20227;-78
2021/08/02 22:15:28;;;;;;;7.47;4.55;;;14.70;99.90;;;;;;6703872;88;20228;-78
2021/08/02 22:25:29;;;;;;;7.78;4.25;;;14.60;99.90;;;;;;6704362;88;20264;-77
2021/08/02 22:35:29;;;;;;;10.57;4.55;;;14.30;99.90;;;;;;6704026;88;20230;-77
2021/08/02 22:45:35;;;;;;;6.10;4.40;;;14.20;99.90;;;;;;6704291;88;20201;-78
2021/08/02 22:55:36;;;;;;;8.77;4.35;;;14.20;99.90;;;;;;6703866;88;20340;-79
2021/08/02 23:05:39;;;;;;;8.02;5.10;;;14.10;99.90;;;;;;6704309;88;20250;-78
2021/08/02 23:15:41;;;;;;;8.20;5.00;;;14.30;99.90;;;;;;6704313;88;20186;-77
2021/08/02 23:25:49;;;;;;;7.90;5.25;;;14.10;99.90;;;;;;6706525;88;20223;-79
2021/08/02 23:35:50;;;;;;;10.75;5.95;;;13.60;99.90;;;;;;6703526;88;20552;-77
2021/08/02 23:45:54;;;;;;;8.52;6.07;;;13.50;99.90;;;;;;6702920;88;20222;-79
2021/08/02 23:55:56;;;;;;;11.80;5.80;;;13.40;99.90;;;;;;6706385;88;20626;-78
